Time;durP1;ratioP1;P1;durP2;ratioP2;P2;SDS_P1;SDS_P2;PMS_P1;PMS_P2;Temp;Humidity;BMP_temperature;BMP_pressure;BME280_temperature;BME280_humidity;BME280_pressure;Samples;Min_cycle;Max_cycle;Signal;HPM_P1;HPM_P2
2021/06/25 00:01:22;;;;;;;1999.90;146.87;;;14.30;99.90;;;;;;6189619;23;20415;-96
2021/06/25 00:03:49;;;;;;;1999.90;120.87;;;14.30;99.90;;;;;;6189775;23;20396;-96
2021/06/25 00:06:17;;;;;;;1867.45;107.80;;;14.30;99.90;;;;;;6189893;23;20407;-96
2021/06/25 00:08:44;;;;;;;1770.63;100.35;;;14.40;99.90;;;;;;6189536;23;20411;-96
2021/06/25 00:11:12;;;;;;;1745.60;94.77;;;14.40;99.90;;;;;;6189307;23;20495;-96
2021/06/25 00:13:39;;;;;;;1999.90;105.00;;;14.40;99.90;;;;;;6189121;23;20383;-95
2021/06/25 00:16:06;;;;;;;1970.47;95.70;;;14.50;99.90;;;;;;6191880;23;20478;-96
2021/06/25 00:18:34;;;;;;;1999.90;102.72;;;14.50;99.90;;;;;;6211001;23;20399;-95
2021/06/25 00:21:01;;;;;;;1999.90;124.47;;;14.50;99.90;;;;;;6191831;23;20387;-95
2021/06/25 00:23:28;;;;;;;1962.95;88.10;;;14.40;99.90;;;;;;6171382;23;20414;-94
2021/06/25 00:25:55;;;;;;;1999.90;118.50;;;14.40;99.90;;;;;;6159899;23;20503;-96
2021/06/25 00:28:23;;;;;;;1999.90;111.95;;;14.40;99.90;;;;;;6160364;23;20930;-96
2021/06/25 00:30:52;;;;;;;1999.90;122.32;;;14.40;99.90;;;;;;6159783;23;20405;-96
2021/06/25 00:33:19;;;;;;;1999.90;131.67;;;14.40;99.90;;;;;;6159908;23;20409;-96
2021/06/25 00:35:46;;;;;;;1999.90;169.30;;;14.40;99.90;;;;;;6160723;23;20400;-95
2021/06/25 00:38:14;;;;;;;1999.90;170.60;;;14.40;99.90;;;;;;6161041;23;20577;-93
2021/06/25 00:40:41;;;;;;;1999.90;180.77;;;14.40;99.90;;;;;;6161555;23;20869;-95
2021/06/25 00:43:10;;;;;;;1999.90;178.48;;;14.40;99.90;;;;;;6161076;23;20742;-95
2021/06/25 00:45:37;;;;;;;1999.90;165.85;;;14.50;99.90;;;;;;6160369;23;20468;-96
2021/06/25 00:48:05;;;;;;;1999.90;173.38;;;14.50;99.90;;;;;;6160274;23;20473;-96
2021/06/25 00:50:34;;;;;;;1999.90;217.43;;;14.50;99.90;;;;;;6161022;23;20464;-96
2021/06/25 00:53:03;;;;;;;1999.90;210.90;;;14.40;99.90;;;;;;6160325;23;20483;-96
2021/06/25 00:55:43;;;;;;;1999.90;195.05;;;14.40;99.90;;;;;;6161015;23;20393;-95
2021/06/25 00:58:14;;;;;;;1578.22;154.13;;;14.40;99.90;;;;;;6162264;23;20567;-95
2021/06/25 01:00:42;;;;;;;525.08;87.43;;;14.40;99.90;;;;;;6161387;23;20397;-94
2021/06/25 01:03:13;;;;;;;163.13;63.45;;;14.30;99.90;;;;;;6162311;23;20443;-95
2021/06/25 01:05:42;;;;;;;215.80;67.18;;;14.30;99.90;;;;;;6161608;23;20390;-95
2021/06/25 01:08:09;;;;;;;160.00;66.15;;;14.20;99.90;;;;;;6161226;23;20393;-96
2021/06/25 01:10:42;;;;;;;127.45;58.50;;;14.30;99.90;;;;;;6162653;23;20755;-95
2021/06/25 01:13:09;;;;;;;84.75;42.85;;;14.20;99.90;;;;;;6161925;23;20476;-96
2021/06/25 01:15:37;;;;;;;73.30;40.20;;;14.10;99.90;;;;;;6161992;23;20388;-95
2021/06/25 01:18:05;;;;;;;88.57;45.42;;;14.10;99.90;;;;;;6165622;23;20420;-96
2021/06/25 01:20:34;;;;;;;96.70;45.72;;;14.00;99.90;;;;;;6166402;23;20374;-94
2021/06/25 01:23:03;;;;;;;89.75;45.20;;;14.00;99.90;;;;;;6168708;23;20393;-96
2021/06/25 01:25:33;;;;;;;86.57;44.67;;;14.00;99.90;;;;;;6169430;23;20557;-94
2021/06/25 01:28:21;;;;;;;92.73;47.30;;;13.90;99.90;;;;;;6163735;23;20396;-96
2021/06/25 01:30:56;;;;;;;69.93;38.08;;;14.00;99.90;;;;;;6138832;23;20480;-96
2021/06/25 01:33:29;;;;;;;84.13;42.33;;;13.90;99.90;;;;;;6161942;23;20392;-96
2021/06/25 01:35:57;;;;;;;67.23;37.47;;;13.90;99.90;;;;;;6139102;23;20385;-96
2021/06/25 01:38:25;;;;;;;81.35;40.92;;;13.90;99.90;;;;;;6161215;23;20379;-96
2021/06/25 01:40:52;;;;;;;79.22;41.35;;;13.90;99.90;;;;;;6161854;23;20476;-96
2021/06/25 01:43:21;;;;;;;66.97;38.27;;;13.80;99.90;;;;;;6162448;23;20870;-96
2021/06/25 01:45:51;;;;;;;82.63;41.10;;;13.90;99.90;;;;;;6168194;23;20401;-96
2021/06/25 01:48:18;;;;;;;81.70;41.10;;;13.90;99.90;;;;;;6143319;23;20779;-95
2021/06/25 01:50:46;;;;;;;77.70;39.85;;;13.90;99.90;;;;;;6171218;23;20401;-96
2021/06/25 01:53:28;;;;;;;76.75;40.05;;;13.90;99.90;;;;;;6172382;23;20381;-95
2021/06/25 01:55:57;;;;;;;74.85;38.67;;;13.80;99.90;;;;;;6171767;23;20484;-96
2021/06/25 01:58:28;;;;;;;88.43;42.77;;;13.80;99.90;;;;;;6186078;23;20386;-96
2021/06/25 02:01:04;;;;;;;80.13;40.30;;;13.80;99.90;;;;;;6168931;23;20477;-96
2021/06/25 02:03:31;;;;;;;83.97;40.92;;;13.80;99.90;;;;;;6165654;23;20393;-94
2021/06/25 02:05:59;;;;;;;81.70;42.05;;;13.80;99.90;;;;;;6165138;23;20409;-95
2021/06/25 02:08:26;;;;;;;104.88;47.45;;;13.80;99.90;;;;;;6165535;23;20409;-95
2021/06/25 02:10:53;;;;;;;100.35;48.83;;;13.80;99.90;;;;;;6166043;23;20397;-96
2021/06/25 02:13:21;;;;;;;121.68;51.92;;;13.70;99.90;;;;;;6168637;23;20440;-96
2021/06/25 02:15:49;;;;;;;96.03;46.88;;;13.70;99.90;;;;;;6144098;23;20468;-94
2021/06/25 02:18:17;;;;;;;73.50;40.15;;;13.70;99.90;;;;;;6168571;23;20416;-96
2021/06/25 02:20:46;;;;;;;68.90;37.42;;;13.80;99.90;;;;;;6169888;23;20386;-96
2021/06/25 02:23:14;;;;;;;64.37;35.10;;;13.70;99.90;;;;;;6168170;23;20457;-96
2021/06/25 02:25:56;;;;;;;62.80;33.60;;;13.70;99.90;;;;;;6187901;23;20472;-96
2021/06/25 02:28:25;;;;;;;62.67;34.08;;;13.60;99.90;;;;;;6167049;23;20393;-96
2021/06/25 02:30:54;;;;;;;50.00;29.38;;;13.70;99.90;;;;;;6164287;23;20413;-96
2021/06/25 02:33:22;;;;;;;52.00;29.05;;;13.60;99.90;;;;;;6165036;23;20424;-96
2021/06/25 02:35:50;;;;;;;50.90;29.10;;;13.50;99.90;;;;;;6163869;23;20389;-96
2021/06/25 02:38:17;;;;;;;53.95;29.40;;;13.50;99.90;;;;;;6161519;23;20472;-96
2021/06/25 02:40:44;;;;;;;49.25;28.05;;;13.40;99.90;;;;;;6166153;23;20472;-94
2021/06/25 02:43:12;;;;;;;48.25;27.48;;;13.40;99.90;;;;;;6164143;23;20470;-96
2021/06/25 02:45:39;;;;;;;49.10;27.58;;;13.40;99.90;;;;;;6165193;23;20389;-96
2021/06/25 02:48:07;;;;;;;47.97;27.40;;;13.40;99.90;;;;;;6163393;23;20389;-96
2021/06/25 02:50:34;;;;;;;46.25;25.02;;;13.40;99.90;;;;;;6162823;23;20393;-95
2021/06/25 02:53:10;;;;;;;40.90;23.58;;;13.40;99.90;;;;;;6165640;23;20376;-95
2021/06/25 02:55:50;;;;;;;37.42;23.42;;;13.30;99.90;;;;;;6162904;23;20448;-96
2021/06/25 02:58:24;;;;;;;39.67;23.95;;;13.30;99.90;;;;;;6164651;23;20451;-96
2021/06/25 03:01:13;;;;;;;42.55;24.70;;;13.30;99.90;;;;;;6181836;23;20381;-96
2021/06/25 03:03:41;;;;;;;43.22;25.85;;;13.30;99.90;;;;;;6179663;23;20384;-95
2021/06/25 03:06:34;;;;;;;45.38;25.35;;;13.30;99.90;;;;;;6181145;23;20452;-96
2021/06/25 03:12:13;;;;;;;47.72;27.92;;;13.20;99.90;;;;;;6221970;23;20404;-96
2021/06/25 05:24:16;;;;;;;5.00;3.95;;;12.70;99.90;;;;;;6122096;23;20375;31
2021/06/25 05:27:44;;;;;;;5.85;3.22;;;12.70;99.90;;;;;;6181187;23;20394;-96
2021/06/25 05:30:42;;;;;;;3.33;2.30;;;12.70;99.90;;;;;;6095523;23;20394;-96
2021/06/25 05:33:31;;;;;;;3.37;2.70;;;12.70;99.90;;;;;;6122816;23;20406;-96
2021/06/25 05:39:56;;;;;;;;;;;;;;;;;;;;;
2021/06/25 05:46:45;;;;;;;;;;;;;;;;;;;;;
2021/06/25 05:50:18;;;;;;;;;;;;;;;;;;;;;
2021/06/25 05:52:59;;;;;;;4.50;3.57;;;12.80;99.90;;;;;;6132412;23;20410;-96
2021/06/25 05:55:49;;;;;;;4.78;3.40;;;13.00;99.90;;;;;;6144167;23;20370;-96
2021/06/25 05:58:20;;;;;;;3.53;2.80;;;13.30;99.90;;;;;;6139842;23;20495;-96
2021/06/25 06:03:34;;;;;;;3.97;1.98;;;13.90;99.90;;;;;;6161687;23;20379;-96
2021/06/25 06:06:02;;;;;;;2.20;1.90;;;14.10;99.90;;;;;;6131250;23;20394;-96
2021/06/25 06:08:29;;;;;;;2.13;1.85;;;14.10;99.90;;;;;;6131355;23;20892;-96
2021/06/25 06:10:57;;;;;;;3.08;2.05;;;14.00;99.90;;;;;;6132213;23;20394;-96
2021/06/25 06:13:24;;;;;;;2.65;2.00;;;13.90;99.90;;;;;;6131574;23;20485;-96
2021/06/25 06:15:52;;;;;;;3.70;1.92;;;13.70;99.90;;;;;;6131666;23;20440;-96
2021/06/25 06:18:28;;;;;;;2.70;2.30;;;13.70;99.90;;;;;;6134505;23;20394;-96
2021/06/25 06:20:55;;;;;;;2.37;2.10;;;13.60;99.90;;;;;;6155822;23;20510;-94
2021/06/25 06:35:45;;;;;;;4.05;2.30;;;13.80;99.90;;;;;;6140837;23;20383;-96
2021/06/25 06:38:12;;;;;;;2.78;2.10;;;13.80;99.90;;;;;;6133382;23;20423;-96
2021/06/25 06:40:43;;;;;;;4.22;2.00;;;13.70;99.90;;;;;;6133041;23;20395;-96
2021/06/25 06:43:11;;;;;;;3.55;2.28;;;13.70;99.90;;;;;;6159421;23;20379;-96
2021/06/25 06:45:38;;;;;;;5.03;2.42;;;13.70;99.90;;;;;;6133822;23;20548;-96
2021/06/25 06:48:06;;;;;;;3.50;2.10;;;13.70;99.90;;;;;;6134081;23;20395;-96
2021/06/25 06:50:37;;;;;;;3.95;2.25;;;13.70;99.90;;;;;;6161335;23;20400;-96
2021/06/25 06:53:05;;;;;;;2.30;2.10;;;13.70;99.90;;;;;;6136751;23;20446;-96
2021/06/25 06:55:32;;;;;;;4.30;2.80;;;13.60;99.90;;;;;;6154175;23;20392;-96
2021/06/25 06:58:01;;;;;;;2.60;2.33;;;13.60;99.90;;;;;;6140624;23;20383;-96
2021/06/25 07:00:29;;;;;;;7.03;3.00;;;13.50;99.90;;;;;;6134867;23;20386;-95
2021/06/25 07:02:56;;;;;;;4.50;2.50;;;13.60;99.90;;;;;;6130988;23;20790;-94
2021/06/25 07:05:24;;;;;;;2.90;2.60;;;13.70;99.90;;;;;;6130922;23;20473;-93
2021/06/25 07:07:53;;;;;;;3.42;2.70;;;13.90;99.90;;;;;;6131062;23;20402;-96
2021/06/25 07:10:21;;;;;;;3.83;2.25;;;14.10;99.90;;;;;;6127333;23;20387;-96
2021/06/25 07:12:48;;;;;;;3.35;2.00;;;14.20;99.90;;;;;;6131886;23;20403;-94
2021/06/25 07:15:15;;;;;;;7.75;3.80;;;14.30;99.90;;;;;;6130741;23;20390;-95
2021/06/25 07:17:42;;;;;;;8.23;6.00;;;14.40;99.90;;;;;;6131909;23;20397;-95
2021/06/25 07:20:10;;;;;;;5.50;3.25;;;14.50;99.90;;;;;;6130811;23;20387;-95
2021/06/25 07:22:37;;;;;;;3.80;2.60;;;14.70;99.90;;;;;;6155981;23;20391;-95
2021/06/25 07:25:05;;;;;;;3.00;2.25;;;14.80;99.90;;;;;;6131492;23;20393;-94
2021/06/25 07:27:32;;;;;;;3.30;1.80;;;14.90;99.90;;;;;;6155171;23;20379;-94
2021/06/25 07:29:59;;;;;;;2.50;1.92;;;14.90;99.90;;;;;;6131927;23;20839;-94
2021/06/25 07:32:27;;;;;;;5.05;2.25;;;14.90;99.90;;;;;;6130818;23;20946;-94
2021/06/25 07:34:55;;;;;;;3.60;2.10;;;14.90;99.90;;;;;;6130657;23;20398;-95
2021/06/25 07:37:22;;;;;;;3.45;1.90;;;14.80;99.90;;;;;;6131329;23;20721;-94
2021/06/25 07:39:50;;;;;;;3.85;2.22;;;14.70;99.90;;;;;;6155254;23;20411;-90
2021/06/25 07:42:17;;;;;;;2.33;2.10;;;14.60;99.90;;;;;;6131400;23;20435;-91
2021/06/25 07:44:44;;;;;;;3.42;1.80;;;14.50;99.90;;;;;;6131939;23;20391;-95
2021/06/25 07:47:22;;;;;;;3.43;1.93;;;14.40;99.90;;;;;;6139556;23;20401;-96
2021/06/25 07:49:49;;;;;;;2.10;1.90;;;14.30;99.90;;;;;;6144173;23;20387;-96
2021/06/25 07:52:19;;;;;;;3.08;2.00;;;14.40;99.90;;;;;;6140139;23;20883;-96
2021/06/25 07:54:46;;;;;;;2.65;1.70;;;14.40;99.90;;;;;;6138806;23;20863;-96
2021/06/25 07:57:13;;;;;;;2.00;1.40;;;14.40;99.90;;;;;;6133445;23;20479;-93
2021/06/25 07:59:40;;;;;;;1.77;1.40;;;14.40;99.90;;;;;;6135652;23;20947;-96
2021/06/25 08:02:07;;;;;;;2.40;1.50;;;14.40;99.90;;;;;;6137825;23;20387;-96
2021/06/25 08:04:35;;;;;;;2.00;1.30;;;14.30;99.90;;;;;;6136087;23;20456;-94
2021/06/25 08:07:02;;;;;;;4.90;1.80;;;14.10;99.90;;;;;;6137027;23;20808;-96
2021/06/25 08:09:29;;;;;;;2.33;1.70;;;14.20;99.90;;;;;;6132955;23;20500;-96
2021/06/25 08:11:56;;;;;;;3.50;2.30;;;14.40;99.90;;;;;;6133041;23;20430;-96
2021/06/25 08:14:23;;;;;;;3.00;2.20;;;14.60;99.90;;;;;;6131414;23;20415;-96
2021/06/25 08:16:51;;;;;;;1.85;1.30;;;14.80;99.90;;;;;;6132381;23;20394;-96
2021/06/25 08:19:20;;;;;;;2.47;1.50;;;14.90;99.90;;;;;;6133169;23;20454;-96
2021/06/25 08:21:47;;;;;;;2.15;1.20;;;15.00;99.90;;;;;;6131701;23;20486;-96
2021/06/25 08:24:14;;;;;;;4.30;1.20;;;15.10;99.90;;;;;;6130755;23;20390;-96
2021/06/25 08:26:42;;;;;;;1.65;1.55;;;15.20;99.90;;;;;;6130748;23;20395;-95
2021/06/25 08:29:09;;;;;;;1.52;1.30;;;15.20;99.90;;;;;;6130866;23;20393;-96
2021/06/25 08:31:36;;;;;;;1.80;1.35;;;15.00;99.90;;;;;;6132045;23;20891;-96
2021/06/25 08:34:09;;;;;;;1.90;1.70;;;14.80;99.90;;;;;;6143143;23;20399;-96
2021/06/25 08:36:42;;;;;;;2.92;1.55;;;14.60;99.90;;;;;;6155860;23;20840;-96
2021/06/25 08:39:09;;;;;;;2.85;2.10;;;14.60;99.90;;;;;;6135787;23;20462;-96
2021/06/25 08:41:38;;;;;;;2.78;1.48;;;14.50;99.90;;;;;;6132304;23;20475;-96
2021/06/25 08:44:06;;;;;;;3.13;1.83;;;14.40;99.90;;;;;;6133205;23;20451;-96
2021/06/25 08:46:33;;;;;;;2.50;1.92;;;14.30;99.90;;;;;;6131048;23;20395;-96
2021/06/25 08:49:05;;;;;;;3.83;2.47;;;14.20;99.90;;;;;;6133448;23;20481;-96
2021/06/25 08:51:33;;;;;;;3.45;2.40;;;14.20;99.90;;;;;;6133012;23;20494;-96
2021/06/25 08:54:00;;;;;;;2.55;2.13;;;14.10;99.90;;;;;;6131249;23;20417;-96
2021/06/25 08:56:32;;;;;;;4.03;2.30;;;14.10;99.90;;;;;;6131432;23;20469;-96
2021/06/25 08:59:00;;;;;;;4.95;2.53;;;14.10;99.90;;;;;;6130050;23;20391;-95
2021/06/25 09:01:32;;;;;;;3.28;2.47;;;14.20;99.90;;;;;;6131335;23;20394;-96
2021/06/25 09:04:00;;;;;;;2.65;2.13;;;14.50;99.90;;;;;;6130801;23;20395;-96
2021/06/25 09:06:27;;;;;;;2.40;1.80;;;14.70;99.90;;;;;;6131328;23;20395;-96
2021/06/25 09:09:12;;;;;;;3.83;1.73;;;15.00;99.90;;;;;;6130673;23;20706;-94
2021/06/25 09:11:42;;;;;;;3.30;1.63;;;15.40;99.90;;;;;;6131544;23;20474;-95
2021/06/25 09:14:11;;;;;;;2.20;1.63;;;15.90;99.90;;;;;;6130228;23;20397;-95
2021/06/25 09:16:39;;;;;;;2.35;1.48;;;16.30;99.90;;;;;;6132427;23;20387;-96
2021/06/25 09:19:14;;;;;;;3.85;1.65;;;16.60;99.90;;;;;;6132962;23;20422;-96
2021/06/25 09:22:01;;;;;;;1.70;1.50;;;16.60;99.90;;;;;;6166153;23;20414;-96
2021/06/25 09:24:49;;;;;;;1.63;1.20;;;16.70;99.90;;;;;;6143807;23;20466;-96
2021/06/25 09:27:17;;;;;;;1.40;1.30;;;16.70;99.90;;;;;;6143073;23;20467;-94
2021/06/25 09:29:47;;;;;;;1.42;1.20;;;16.40;99.90;;;;;;6148002;23;20398;-96
2021/06/25 09:32:14;;;;;;;2.30;1.30;;;16.40;99.90;;;;;;6119257;23;20481;-96
2021/06/25 09:34:49;;;;;;;2.37;1.40;;;16.30;99.90;;;;;;6141787;23;20391;-96
2021/06/25 09:43:58;;;;;;;2.20;1.10;;;16.10;99.90;;;;;;6177060;23;20767;-96
2021/06/25 12:16:24;;;;;;;1.02;0.88;;;19.90;99.90;;;;;;6204328;23;20356;-96
2021/06/25 12:19:10;;;;;;;2.40;0.80;;;20.30;99.90;;;;;;6175370;23;20696;-96
2021/06/25 12:26:39;;;;;;;1.40;1.00;;;19.80;99.90;;;;;;5993068;23;20386;-94
2021/06/25 12:33:53;;;;;;;0.98;0.80;;;20.50;99.90;;;;;;5967762;24;20404;-96
2021/06/25 12:37:20;;;;;;;0.70;0.70;;;21.10;99.90;;;;;;5941064;24;20486;-94
2021/06/25 12:40:51;;;;;;;1.60;0.90;;;21.20;99.90;;;;;;5968685;24;20405;-93
2021/06/25 12:44:10;;;;;;;0.70;0.70;;;21.50;99.90;;;;;;5948356;24;20507;-93
2021/06/25 12:47:07;;;;;;;0.90;0.80;;;21.50;99.90;;;;;;5952564;24;20407;-96
2021/06/25 12:49:51;;;;;;;1.80;0.80;;;20.70;99.90;;;;;;5926063;24;20402;-96
2021/06/25 12:52:33;;;;;;;2.60;0.85;;;20.20;99.90;;;;;;5934549;24;20804;-96
2021/06/25 12:55:09;;;;;;;1.38;0.75;;;20.30;99.90;;;;;;5966983;23;20457;-93
2021/06/25 12:58:09;;;;;;;3.60;0.90;;;21.20;99.90;;;;;;6057361;23;20400;-94
2021/06/25 13:01:40;;;;;;;0.90;0.70;;;21.70;99.90;;;;;;6085899;23;20365;-96
2021/06/25 13:04:55;;;;;;;0.75;0.65;;;22.10;99.90;;;;;;6065282;23;20400;-93
2021/06/25 13:08:15;;;;;;;1.00;0.80;;;22.90;99.90;;;;;;6084540;23;20388;-96
2021/06/25 13:10:50;;;;;;;1.23;0.80;;;23.40;99.90;;;;;;6087587;23;20488;-95
2021/06/25 13:13:46;;;;;;;3.10;0.60;;;23.50;99.90;;;;;;6084374;23;20406;-96
2021/06/25 13:16:30;;;;;;;0.70;0.70;;;24.20;99.90;;;;;;6121196;23;20407;-96
2021/06/25 13:19:25;;;;;;;1.42;0.80;;;24.60;99.90;;;;;;6169606;23;20381;-95
2021/06/25 13:25:17;;;;;;;1.58;0.73;;;23.30;99.90;;;;;;6198548;23;20417;-91
2021/06/25 13:28:11;;;;;;;2.35;0.80;;;22.30;99.90;;;;;;6198957;23;20428;-94
2021/06/25 13:30:45;;;;;;;2.13;0.80;;;21.60;99.90;;;;;;6149119;23;20445;-95
2021/06/25 13:36:53;;;;;;;1.05;0.80;;;21.00;99.90;;;;;;6236392;23;20537;-95
2021/06/25 13:40:01;;;;;;;1.52;0.80;;;21.00;99.90;;;;;;6232881;23;20388;-96
2021/06/25 13:43:22;;;;;;;1.30;0.70;;;21.90;99.90;;;;;;6212132;22;20401;-94
2021/06/25 14:06:44;;;;;;;1.27;0.80;;;25.40;99.90;;;;;;6219325;23;20395;-95
2021/06/25 14:10:14;;;;;;;2.10;0.70;;;25.60;99.90;;;;;;6222746;23;20447;-95
2021/06/25 14:13:37;;;;;;;1.77;0.90;;;24.20;99.90;;;;;;6186709;23;20399;-94
2021/06/25 14:17:04;;;;;;;2.70;0.90;;;23.30;99.90;;;;;;6174397;23;20381;-96
2021/06/25 14:19:57;;;;;;;3.47;0.90;;;22.60;99.90;;;;;;6172775;23;20400;-96
2021/06/25 14:22:27;;;;;;;1.40;0.70;;;22.30;99.90;;;;;;6165782;23;20389;-95
2021/06/25 14:25:10;;;;;;;1.17;0.70;;;22.60;99.90;;;;;;6179101;23;20374;-94
2021/06/25 14:27:43;;;;;;;0.90;0.80;;;22.80;99.90;;;;;;6161529;23;20393;-96
2021/06/25 14:30:12;;;;;;;1.88;0.70;;;22.30;99.90;;;;;;6162121;23;20389;-95
2021/06/25 14:32:47;;;;;;;3.55;0.80;;;21.60;99.90;;;;;;6146987;23;20481;-94
2021/06/25 14:35:19;;;;;;;0.80;0.60;;;21.00;99.90;;;;;;6167913;23;20416;-95
2021/06/25 14:37:54;;;;;;;1.98;0.70;;;20.60;99.90;;;;;;6172635;23;20419;-96
2021/06/25 14:40:22;;;;;;;0.70;0.70;;;21.40;99.90;;;;;;6177515;23;20393;-96
2021/06/25 14:43:03;;;;;;;0.80;0.70;;;22.40;99.90;;;;;;6164831;23;20426;-94
2021/06/25 14:45:30;;;;;;;1.10;0.60;;;23.50;99.90;;;;;;6193171;23;20474;-95
2021/06/25 14:48:00;;;;;;;1.80;0.90;;;24.30;99.90;;;;;;6193040;23;20394;-96
2021/06/25 14:50:27;;;;;;;3.05;0.80;;;24.50;99.90;;;;;;6193601;23;20392;-96
2021/06/25 14:52:55;;;;;;;1.50;0.50;;;24.40;99.90;;;;;;6192536;23;20411;-95
2021/06/25 14:55:22;;;;;;;1.83;0.70;;;24.50;99.90;;;;;;6191965;23;20478;-96
2021/06/25 14:57:49;;;;;;;0.60;0.60;;;24.50;99.90;;;;;;6191400;23;20388;-95
2021/06/25 15:00:17;;;;;;;1.15;0.65;;;24.90;99.90;;;;;;6191140;23;20466;-96
2021/06/25 15:02:44;;;;;;;0.90;0.60;;;25.20;98.60;;;;;;6190984;23;20390;-96
2021/06/25 15:05:12;;;;;;;2.15;0.80;;;25.30;98.90;;;;;;6191933;23;20388;-94
2021/06/25 15:07:39;;;;;;;1.90;0.60;;;25.20;97.60;;;;;;6190503;23;20475;-96
2021/06/25 15:10:07;;;;;;;0.65;0.60;;;25.00;98.10;;;;;;6190960;23;20479;-96
2021/06/25 15:12:34;;;;;;;0.70;0.70;;;25.20;98.20;;;;;;6203781;23;20383;-95
2021/06/25 15:15:05;;;;;;;1.40;0.90;;;24.40;98.30;;;;;;6211858;23;20732;-96
2021/06/25 15:17:32;;;;;;;0.68;0.65;;;23.90;99.10;;;;;;6193109;23;20474;-96
2021/06/25 15:20:01;;;;;;;0.90;0.68;;;23.10;99.90;;;;;;6190644;23;20474;-94
2021/06/25 15:22:33;;;;;;;1.92;0.80;;;22.60;99.90;;;;;;6191135;23;20384;-95
2021/06/25 15:25:00;;;;;;;1.73;1.00;;;22.20;99.90;;;;;;6190594;23;20407;-95
2021/06/25 15:27:27;;;;;;;1.65;0.80;;;21.80;99.90;;;;;;6190209;23;20428;-94
2021/06/25 15:29:55;;;;;;;2.55;0.90;;;21.60;99.90;;;;;;6190134;23;20482;-94
2021/06/25 15:32:25;;;;;;;1.33;0.77;;;21.70;99.90;;;;;;6190332;23;20392;-94
2021/06/25 15:34:53;;;;;;;2.50;0.88;;;21.60;99.90;;;;;;6190888;23;20415;-95
2021/06/25 15:37:20;;;;;;;1.50;0.70;;;21.30;99.90;;;;;;6190334;23;20390;-94
2021/06/25 15:39:47;;;;;;;1.13;0.80;;;21.30;99.90;;;;;;6190167;23;20853;-94
2021/06/25 15:42:14;;;;;;;2.40;0.70;;;21.60;99.90;;;;;;6189550;23;20417;-95
2021/06/25 15:45:11;;;;;;;1.70;0.80;;;21.60;99.90;;;;;;6197294;23;20375;-96
2021/06/25 15:47:43;;;;;;;1.90;0.73;;;21.30;99.90;;;;;;6209147;23;20378;-96
2021/06/25 15:50:11;;;;;;;1.50;0.70;;;20.90;99.90;;;;;;6207356;23;20836;-96
2021/06/25 15:52:52;;;;;;;0.80;0.70;;;20.50;99.90;;;;;;6184952;23;20410;-95
2021/06/25 15:55:35;;;;;;;1.95;0.80;;;20.30;99.90;;;;;;6208332;23;20379;-96
2021/06/25 15:58:12;;;;;;;1.30;0.90;;;20.10;99.90;;;;;;6184705;23;20769;-95
2021/06/25 16:00:58;;;;;;;1.20;0.63;;;19.90;99.90;;;;;;6210288;23;20368;-96
2021/06/25 16:03:42;;;;;;;1.33;0.73;;;19.90;99.90;;;;;;6189508;23;20383;-96
2021/06/25 16:06:23;;;;;;;2.38;0.70;;;20.00;99.90;;;;;;6211731;23;20422;-96
2021/06/25 16:09:41;;;;;;;1.35;0.80;;;19.90;99.90;;;;;;6189088;23;20410;-96
2021/06/25 16:12:29;;;;;;;1.60;0.90;;;19.80;99.90;;;;;;6195769;23;20780;-96
2021/06/25 16:17:58;;;;;;;0.73;0.70;;;20.20;99.90;;;;;;6167728;23;20410;-96
2021/06/25 16:20:30;;;;;;;1.70;0.80;;;21.30;99.90;;;;;;6144850;23;20388;-96
2021/06/25 16:23:16;;;;;;;1.88;0.70;;;22.30;99.90;;;;;;6121342;23;20461;-94
2021/06/25 16:25:57;;;;;;;1.30;0.60;;;23.10;99.90;;;;;;6099581;23;20505;-94
2021/06/25 16:34:56;;;;;;;0.73;0.50;;;24.90;99.90;;;;;;6225296;23;20848;-96
2021/06/25 16:37:34;;;;;;;0.90;0.60;;;24.60;99.30;;;;;;6173758;23;20404;-93
2021/06/25 16:40:40;;;;;;;0.65;0.50;;;24.40;98.50;;;;;;6188306;23;20386;-96
2021/06/25 16:43:17;;;;;;;0.88;0.52;;;24.20;97.20;;;;;;6200146;23;20393;-96
2021/06/25 16:45:50;;;;;;;2.95;0.50;;;24.20;98.50;;;;;;6169778;23;20385;-96
2021/06/25 16:48:36;;;;;;;2.70;0.60;;;24.20;98.10;;;;;;6194237;23;20439;-96
2021/06/25 16:51:06;;;;;;;1.60;0.60;;;23.80;98.50;;;;;;6167307;23;20391;-94
2021/06/25 16:53:34;;;;;;;0.85;0.50;;;23.70;98.80;;;;;;6164348;23;20424;-93
2021/06/25 17:10:03;;;;;;;2.60;0.70;;;22.70;99.90;;;;;;6172727;23;20377;-94
2021/06/25 17:24:29;;;;;;;1.00;0.70;;;19.20;99.90;;;;;;6227191;23;20386;-96
2021/06/25 17:26:59;;;;;;;1.00;0.70;;;18.90;99.90;;;;;;6197947;23;20395;-96
2021/06/25 17:29:45;;;;;;;1.08;0.90;;;18.70;99.90;;;;;;6197573;23;20391;-94
2021/06/25 17:32:14;;;;;;;2.10;0.90;;;18.50;99.90;;;;;;6196549;23;20450;-95
2021/06/25 17:34:41;;;;;;;1.77;1.00;;;18.40;99.90;;;;;;6198819;23;20472;-94
2021/06/25 17:37:08;;;;;;;3.72;0.93;;;18.30;99.90;;;;;;6197219;23;20375;-95
2021/06/25 17:39:35;;;;;;;0.93;0.90;;;18.20;99.90;;;;;;6194915;23;20470;-95
2021/06/25 17:42:03;;;;;;;2.83;1.02;;;18.10;99.90;;;;;;6195760;23;20398;-94
2021/06/25 17:44:30;;;;;;;1.10;1.00;;;17.90;99.90;;;;;;6194839;23;20414;-95
2021/06/25 17:46:57;;;;;;;2.22;0.90;;;17.80;99.90;;;;;;6195232;23;20388;-93
2021/06/25 17:49:25;;;;;;;1.85;1.23;;;17.70;99.90;;;;;;6194755;23;20474;-96
2021/06/25 17:51:53;;;;;;;1.17;1.00;;;17.70;99.90;;;;;;6196707;23;20547;-96
2021/06/25 17:54:20;;;;;;;1.30;1.00;;;17.70;99.90;;;;;;6195324;23;20403;-94
2021/06/25 17:56:53;;;;;;;1.90;1.10;;;17.60;99.90;;;;;;6197843;23;20845;-95
2021/06/25 17:59:43;;;;;;;1.50;1.08;;;17.50;99.90;;;;;;6074878;23;20687;-94
2021/06/25 18:02:16;;;;;;;2.80;1.00;;;17.40;99.90;;;;;;6073491;23;20396;-96
2021/06/25 18:04:43;;;;;;;1.65;0.98;;;17.40;99.90;;;;;;6072529;23;20809;-95
2021/06/25 18:07:10;;;;;;;1.73;1.25;;;17.40;99.90;;;;;;6077614;23;20404;-96
2021/06/25 18:09:37;;;;;;;3.03;1.23;;;17.40;99.90;;;;;;6070078;23;20396;-93
2021/06/25 18:18:03;;;;;;;2.50;1.10;;;17.50;99.90;;;;;;6216157;23;20393;-90
2021/06/25 18:20:39;;;;;;;1.90;0.90;;;17.70;99.90;;;;;;6166695;23;20389;-92
2021/06/25 18:23:07;;;;;;;2.10;1.17;;;18.00;99.90;;;;;;6160580;23;20393;-91
2021/06/25 18:25:37;;;;;;;1.73;1.10;;;18.10;99.90;;;;;;6161380;23;20750;-90
2021/06/25 18:28:06;;;;;;;1.90;1.00;;;18.00;99.90;;;;;;6160614;23;20447;-90
2021/06/25 19:14:45;;;;;;;3.40;1.30;;;16.80;99.90;;;;;;6232895;23;20407;-96
2021/06/25 19:20:38;;;;;;;1.80;1.55;;;16.40;99.90;;;;;;6199687;23;20456;-95
2021/06/25 19:23:27;;;;;;;2.20;1.60;;;16.30;99.90;;;;;;6170732;23;20388;-95
2021/06/25 19:26:34;;;;;;;4.22;1.83;;;16.10;99.90;;;;;;6143613;23;20392;-96
2021/06/25 19:29:27;;;;;;;3.67;1.83;;;16.00;99.90;;;;;;6124469;23;20380;-95
2021/06/25 19:32:42;;;;;;;2.88;2.30;;;15.80;99.90;;;;;;6138352;23;20386;-96
2021/06/25 19:36:01;;;;;;;8.02;2.50;;;15.60;99.90;;;;;;6188066;23;20392;-95
2021/06/25 19:42:53;;;;;;;4.60;3.10;;;15.30;99.90;;;;;;5948825;24;20390;-95
2021/06/25 19:46:17;;;;;;;9.25;3.30;;;15.10;99.90;;;;;;5858566;24;20437;-95
2021/06/25 19:49:35;;;;;;;12.57;3.70;;;15.00;99.90;;;;;;5820097;24;20726;-96
2021/06/25 19:55:25;;;;;;;6.55;2.80;;;15.00;99.90;;;;;;6190466;23;20393;-96
2021/06/25 19:58:36;;;;;;;5.55;3.20;;;15.00;99.90;;;;;;6114068;23;20415;-95
2021/06/25 20:02:27;;;;;;;4.60;2.88;;;14.90;99.90;;;;;;6059105;23;20382;-95
2021/06/25 20:05:32;;;;;;;9.00;3.70;;;14.90;99.90;;;;;;5987092;23;20390;-96
2021/06/25 20:09:03;;;;;;;4.17;3.20;;;14.80;99.90;;;;;;6006468;23;20390;-95
2021/06/25 20:56:47;;;;;;;3.88;3.03;;;13.70;99.90;;;;;;6231600;23;20681;-96
2021/06/25 20:59:58;;;;;;;6.40;3.30;;;13.60;99.90;;;;;;6227903;23;20399;-96
2021/06/25 22:21:34;;;;;;;8.90;5.70;;;13.40;99.90;;;;;;6175707;23;20380;-96
2021/06/25 22:25:25;;;;;;;9.52;6.65;;;13.40;99.90;;;;;;6076475;23;20400;-96
2021/06/25 22:29:22;;;;;;;8.98;6.20;;;13.50;99.90;;;;;;6029487;23;20376;-96
2021/06/25 22:39:05;;;;;;;8.80;6.93;;;13.40;99.90;;;;;;6228072;23;20379;-96
2021/06/25 22:41:55;;;;;;;9.77;7.25;;;13.40;99.90;;;;;;6232957;23;20414;-96
2021/06/25 22:45:01;;;;;;;11.02;8.30;;;13.40;99.90;;;;;;6211856;23;20400;-96
2021/06/25 22:48:38;;;;;;;10.73;8.10;;;13.50;99.90;;;;;;6213206;23;20423;-96
2021/06/25 22:52:38;;;;;;;10.65;8.00;;;13.50;99.90;;;;;;6150538;23;20461;-96
2021/06/25 22:55:52;;;;;;;10.38;9.00;;;13.40;99.90;;;;;;6030753;23;20459;-96
2021/06/25 22:59:23;;;;;;;11.65;9.25;;;13.50;99.90;;;;;;5992697;23;20407;-96
2021/06/25 23:02:38;;;;;;;10.38;8.82;;;13.50;99.90;;;;;;6207043;23;20423;-93
2021/06/25 23:09:14;;;;;;;14.20;10.10;;;13.30;99.90;;;;;;6215007;23;20470;-96
2021/06/25 23:14:56;;;;;;;14.13;11.50;;;13.40;99.90;;;;;;6206181;23;20417;-96
2021/06/25 23:18:19;;;;;;;13.70;10.60;;;13.40;99.90;;;;;;6204718;23;20372;-96
2021/06/25 23:21:10;;;;;;;13.18;11.10;;;13.40;99.90;;;;;;6034792;23;20402;-95